Time;durP1;ratioP1;P1;durP2;ratioP2;P2;SDS_P1;SDS_P2;PMS_P1;PMS_P2;Temp;Humidity;BMP_temperature;BMP_pressure;BME280_temperature;BME280_humidity;BME280_pressure;Samples;Min_cycle;Max_cycle;Signal;HPM_P1;HPM_P2
2022/10/18 00:01:42;;;;;;;29.10;13.75;;;;;;;9.48;78.44;100292.16;4898329;29;20048;-85
2022/10/18 00:04:08;;;;;;;30.15;13.30;;;;;;;9.44;78.15;100277.47;4898055;29;20532;-85
2022/10/18 00:06:35;;;;;;;27.63;13.90;;;;;;;9.47;78.44;100276.06;4898247;29;20534;-85
2022/10/18 00:09:00;;;;;;;29.42;13.48;;;;;;;9.45;78.32;100278.28;4897762;29;20051;-84
2022/10/18 00:11:27;;;;;;;28.50;14.30;;;;;;;9.45;78.56;100278.28;4897889;29;20514;-85
2022/10/18 00:13:55;;;;;;;31.13;14.57;;;;;;;9.51;78.01;100271.69;4897765;29;20131;-87
2022/10/18 00:16:21;;;;;;;35.35;15.63;;;;;;;9.50;77.95;100257.19;4898040;29;20037;-86
2022/10/18 00:18:47;;;;;;;35.25;15.35;;;;;;;9.49;77.92;100250.13;4898008;29;20121;-85
2022/10/18 00:21:19;;;;;;;29.52;15.10;;;;;;;9.50;77.98;100248.22;4907562;29;20032;-85
2022/10/18 00:23:46;;;;;;;31.77;14.32;;;;;;;9.47;77.77;100246.88;4912919;29;20051;-85
2022/10/18 00:26:28;;;;;;;25.20;14.82;;;;;;;9.45;77.79;100240.06;4894833;29;20052;-85
2022/10/18 00:28:58;;;;;;;27.98;14.38;;;;;;;9.44;77.75;100260.25;4894850;29;20080;-84
2022/10/18 00:31:30;;;;;;;28.95;13.98;;;;;;;9.49;77.67;100241.94;4893602;29;20048;-85
2022/10/18 00:33:59;;;;;;;30.92;14.15;;;;;;;9.45;77.87;100229.97;4895222;29;20522;-85
2022/10/18 00:36:27;;;;;;;27.90;12.90;;;;;;;9.45;77.66;100242.78;4895093;29;20056;-85
2022/10/18 00:38:53;;;;;;;28.10;13.95;;;;;;;9.47;77.76;100244.16;4879104;29;20052;-86
2022/10/18 00:41:23;;;;;;;24.77;12.45;;;;;;;9.47;77.91;100238.69;4895075;29;20082;-85
2022/10/18 00:44:01;;;;;;;26.70;12.77;;;;;;;9.52;77.55;100230.44;4895285;29;20056;-86
2022/10/18 00:46:30;;;;;;;28.85;12.90;;;;;;;9.55;77.44;100234.53;4895134;29;20705;-85
2022/10/18 00:49:16;;;;;;;30.35;13.40;;;;;;;9.56;77.33;100226.06;4879694;29;20100;-85
2022/10/18 00:52:16;;;;;;;28.38;12.68;;;;;;;9.45;77.21;100212.78;4876501;29;20049;-86
2022/10/18 00:54:45;;;;;;;25.00;11.52;;;;;;;9.50;77.40;100221.72;4886894;29;20514;-86
2022/10/18 00:57:12;;;;;;;29.90;13.30;;;;;;;9.48;77.39;100207.56;4870779;29;20052;-85
2022/10/18 00:59:40;;;;;;;22.90;12.73;;;;;;;9.51;77.43;100201.53;4893344;29;20080;-85
2022/10/18 01:02:07;;;;;;;31.27;12.85;;;;;;;9.50;77.23;100201.81;4894840;29;20043;-85
2022/10/18 01:04:34;;;;;;;25.58;12.18;;;;;;;9.47;77.30;100205.09;4894692;29;20467;-85
2022/10/18 01:07:18;;;;;;;26.58;12.57;;;;;;;9.48;77.07;100202.09;4894899;29;20044;-85
2022/10/18 01:09:57;;;;;;;29.35;12.98;;;;;;;9.41;77.05;100196.97;4894877;29;20044;-85
2022/10/18 01:12:34;;;;;;;24.85;12.20;;;;;;;9.41;77.32;100207.88;4894480;29;20519;-85
2022/10/18 01:15:14;;;;;;;28.33;12.93;;;;;;;9.31;77.45;100191.56;4878803;29;20051;-84
2022/10/18 01:17:49;;;;;;;27.50;11.80;;;;;;;9.35;77.45;100202.75;4896853;29;20052;-85
2022/10/18 01:20:46;;;;;;;32.08;12.88;;;;;;;9.30;77.54;100203.56;4880348;29;20052;-85
2022/10/18 01:23:32;;;;;;;22.67;11.10;;;;;;;9.16;77.81;100197.94;4896747;29;20045;-85
2022/10/18 01:26:26;;;;;;;24.35;11.65;;;;;;;9.22;78.11;100197.91;4895913;29;20190;-85
2022/10/18 01:29:10;;;;;;;26.65;12.52;;;;;;;9.22;77.88;100190.53;4879962;29;20041;-85
2022/10/18 01:31:47;;;;;;;24.02;11.60;;;;;;;9.21;78.02;100205.28;4896521;29;20036;-86
2022/10/18 01:34:17;;;;;;;26.17;11.93;;;;;;;9.11;78.09;100197.97;4896803;29;20135;-85
2022/10/18 01:36:49;;;;;;;22.88;11.93;;;;;;;9.13;78.05;100198.50;4895248;29;20107;-85
2022/10/18 01:39:20;;;;;;;25.02;11.95;;;;;;;9.15;78.12;100196.31;4879992;29;20044;-85
2022/10/18 01:41:50;;;;;;;26.15;12.13;;;;;;;9.06;77.91;100184.34;4879829;29;20048;-85
2022/10/18 01:44:23;;;;;;;26.45;11.73;;;;;;;9.07;78.07;100177.81;4896420;29;20072;-85
2022/10/18 01:46:52;;;;;;;29.33;12.68;;;;;;;9.08;77.99;100170.44;4896266;29;20052;-85
2022/10/18 01:49:18;;;;;;;24.40;12.60;;;;;;;9.11;78.10;100183.53;4896699;29;20036;-85
2022/10/18 01:51:44;;;;;;;25.02;11.95;;;;;;;9.11;78.29;100183.53;4896518;29;20510;-85
2022/10/18 01:54:14;;;;;;;26.25;12.95;;;;;;;9.13;77.88;100181.31;4879145;29;20068;-84
2022/10/18 01:57:13;;;;;;;26.50;12.60;;;;;;;9.09;78.20;100178.34;4895961;29;20047;-84
2022/10/18 01:59:58;;;;;;;28.05;12.57;;;;;;;9.07;78.17;100160.63;4877920;29;20048;-90
2022/10/18 02:02:59;;;;;;;27.30;12.65;;;;;;;9.18;77.84;100175.84;4887589;29;20100;-85
2022/10/18 02:05:41;;;;;;;31.15;12.25;;;;;;;9.17;77.68;100166.00;4878012;29;20052;-84
2022/10/18 02:08:24;;;;;;;31.58;12.70;;;;;;;9.16;77.86;100157.00;4896139;29;20566;-85
2022/10/18 02:11:11;;;;;;;24.58;12.70;;;;;;;9.08;77.70;100148.63;4864351;29;20515;-85
2022/10/18 02:13:57;;;;;;;25.33;12.35;;;;;;;9.05;77.83;100146.47;4896207;29;20049;-83
2022/10/18 02:16:33;;;;;;;26.95;12.27;;;;;;;9.06;77.92;100146.16;4896075;29;20658;-84
2022/10/18 02:19:34;;;;;;;33.20;13.05;;;;;;;9.02;78.15;100142.38;4896065;29;20115;-85
2022/10/18 02:22:00;;;;;;;25.38;12.65;;;;;;;9.15;77.62;100149.13;4877586;29;20139;-84
2022/10/18 02:24:35;;;;;;;30.95;12.43;;;;;;;9.05;77.79;100149.19;4895810;29;20499;-84
2022/10/18 02:27:01;;;;;;;28.90;12.95;;;;;;;9.12;77.84;100150.50;4896341;29;20056;-85
2022/10/18 02:29:28;;;;;;;25.50;12.52;;;;;;;9.01;77.31;100127.13;4895859;29;20223;-85
2022/10/18 02:32:10;;;;;;;32.70;13.60;;;;;;;9.16;77.61;100148.00;4896238;29;20048;-85
2022/10/18 02:34:56;;;;;;;25.10;12.57;;;;;;;9.14;77.74;100148.31;4895363;29;20040;-84
2022/10/18 02:37:27;;;;;;;22.90;12.13;;;;;;;9.11;77.53;100137.97;4894286;29;20049;-85
2022/10/18 02:39:53;;;;;;;30.35;12.95;;;;;;;9.13;77.50;100141.19;4879179;29;20049;-85
2022/10/18 02:42:21;;;;;;;20.98;12.07;;;;;;;9.12;77.24;100116.94;4895963;29;20047;-85
2022/10/18 02:44:47;;;;;;;25.55;12.45;;;;;;;9.09;77.17;100114.78;4896139;29;20565;-85
2022/10/18 02:47:13;;;;;;;24.15;12.60;;;;;;;9.18;77.24;100124.81;4895828;29;20045;-85
2022/10/18 02:49:39;;;;;;;30.17;12.77;;;;;;;9.05;77.24;100102.81;4881953;29;20043;-85
2022/10/18 02:52:06;;;;;;;23.42;12.50;;;;;;;9.12;77.19;100120.50;4899520;29;20059;-84
2022/10/18 02:54:32;;;;;;;27.38;12.38;;;;;;;9.11;77.21;100109.88;4899354;29;20056;-84
2022/10/18 02:56:58;;;;;;;26.27;12.00;;;;;;;9.06;77.37;100121.63;4899397;29;20041;-85
2022/10/18 02:59:24;;;;;;;24.08;12.18;;;;;;;9.08;77.42;100100.34;4898654;29;20044;-84
2022/10/18 03:01:50;;;;;;;25.27;12.80;;;;;;;9.03;77.41;100092.19;4899455;29;20064;-84
2022/10/18 03:04:16;;;;;;;26.58;12.00;;;;;;;9.14;77.21;100095.66;4899011;29;20123;-84
2022/10/18 03:06:42;;;;;;;29.88;12.90;;;;;;;9.10;76.98;100073.56;4882578;29;20179;-85
2022/10/18 03:09:09;;;;;;;22.02;11.63;;;;;;;9.21;76.99;100093.44;4899205;29;20524;-84
2022/10/18 03:11:35;;;;;;;28.27;12.70;;;;;;;9.15;76.98;100081.72;4898754;29;20044;-85
2022/10/18 03:14:01;;;;;;;22.17;11.70;;;;;;;9.14;76.79;100068.41;4898785;29;20045;-85
2022/10/18 03:16:27;;;;;;;31.48;13.23;;;;;;;9.13;77.00;100083.13;4898616;29;20052;-85
2022/10/18 03:18:53;;;;;;;25.83;12.37;;;;;;;9.07;77.14;100076.91;4898866;29;20049;-85
2022/10/18 03:21:19;;;;;;;27.42;12.43;;;;;;;9.05;77.15;100070.91;4898379;29;20597;-84
2022/10/18 03:23:45;;;;;;;33.15;13.32;;;;;;;9.22;76.80;100064.22;4882213;29;20055;-85
2022/10/18 03:26:12;;;;;;;29.65;12.82;;;;;;;9.13;76.86;100064.81;4898638;29;20131;-85
2022/10/18 03:28:38;;;;;;;30.48;12.02;;;;;;;9.09;77.15;100050.13;4898469;29;20120;-84
2022/10/18 03:31:04;;;;;;;24.98;12.07;;;;;;;9.12;77.00;100049.56;4893667;29;20139;-84
2022/10/18 03:33:31;;;;;;;28.52;12.18;;;;;;;9.21;76.78;100046.25;4897610;29;20036;-84
2022/10/18 03:35:57;;;;;;;30.67;12.95;;;;;;;9.12;76.58;100029.66;4880705;29;20052;-85
2022/10/18 03:38:23;;;;;;;25.52;12.77;;;;;;;9.18;76.67;100026.59;4865683;29;20127;-83
2022/10/18 03:40:49;;;;;;;27.85;13.02;;;;;;;9.18;76.65;100028.53;4882984;29;20132;-83
2022/10/18 03:43:15;;;;;;;29.20;13.10;;;;;;;9.10;76.86;100027.22;4897279;29;20156;-84
2022/10/18 03:45:41;;;;;;;30.13;13.10;;;;;;;8.99;77.14;100014.78;4896904;29;20048;-83
2022/10/18 03:48:07;;;;;;;22.85;12.77;;;;;;;8.95;77.34;100019.16;4897598;29;20060;-83
2022/10/18 03:50:33;;;;;;;28.50;13.02;;;;;;;8.93;77.47;100010.44;4898174;29;20537;-84
2022/10/18 03:52:59;;;;;;;33.15;13.57;;;;;;;8.96;77.44;100009.06;4880914;29;20147;-83
2022/10/18 03:55:25;;;;;;;29.25;13.13;;;;;;;8.86;77.57;100001.78;4895505;29;20057;-83
2022/10/18 03:57:51;;;;;;;30.13;13.80;;;;;;;8.79;77.64;99987.66;4906901;29;20051;-83
2022/10/18 04:00:18;;;;;;;26.05;13.38;;;;;;;8.88;77.62;99996.88;4916403;29;20044;-85
2022/10/18 04:02:44;;;;;;;32.88;14.05;;;;;;;8.87;77.75;99992.50;4902315;29;20040;-84
2022/10/18 04:05:10;;;;;;;32.72;13.38;;;;;;;8.82;77.80;99987.09;4881482;29;20044;-86
2022/10/18 04:07:36;;;;;;;26.35;12.57;;;;;;;8.85;77.88;99975.63;4881940;29;20460;-87
2022/10/18 04:10:02;;;;;;;30.65;13.52;;;;;;;8.83;77.66;99970.44;4897435;29;20091;-87
2022/10/18 04:12:29;;;;;;;30.05;14.05;;;;;;;8.84;77.63;99976.72;4877147;29;20044;-85
2022/10/18 04:14:55;;;;;;;32.65;13.68;;;;;;;8.91;77.69;99966.31;4896616;29;20525;-85
2022/10/18 04:17:21;;;;;;;31.13;14.03;;;;;;;8.99;77.24;99981.22;4895319;29;20552;-89
2022/10/18 04:19:48;;;;;;;34.35;14.70;;;;;;;9.00;76.97;99980.94;4880961;29;20602;-87
2022/10/18 04:22:14;;;;;;;27.27;13.48;;;;;;;9.11;76.95;99971.56;4873593;29;20049;-87
2022/10/18 04:24:40;;;;;;;25.00;12.82;;;;;;;9.09;76.62;99975.69;4896698;29;20119;-85
2022/10/18 04:27:07;;;;;;;31.42;14.32;;;;;;;9.07;76.78;99978.72;4897459;29;20053;-85
2022/10/18 04:29:33;;;;;;;28.55;13.57;;;;;;;9.07;76.97;99965.06;4897539;29;20042;-86
2022/10/18 04:31:59;;;;;;;28.27;13.18;;;;;;;9.08;76.75;99958.50;4897781;29;20052;-86
2022/10/18 04:34:25;;;;;;;29.88;13.68;;;;;;;9.21;76.55;99967.13;4881179;29;20032;-87
2022/10/18 04:36:51;;;;;;;35.35;13.23;;;;;;;9.22;76.54;99968.75;4865656;29;20567;-85
2022/10/18 04:39:17;;;;;;;35.97;14.32;;;;;;;9.14;76.67;99956.56;4859123;29;20473;-87
2022/10/18 04:41:43;;;;;;;30.98;13.93;;;;;;;9.12;76.54;99947.84;4859245;29;20069;-86
2022/10/18 04:44:10;;;;;;;28.80;14.80;;;;;;;9.24;76.60;99955.63;4860080;29;20045;-86
2022/10/18 04:46:36;;;;;;;34.87;14.50;;;;;;;9.22;76.75;99963.28;4859054;29;20053;-87
2022/10/18 04:49:02;;;;;;;30.83;13.50;;;;;;;9.04;76.90;99935.66;4860088;29;20488;-86
2022/10/18 04:51:28;;;;;;;35.10;14.40;;;;;;;9.14;76.94;99930.09;4860236;29;20546;-89
2022/10/18 04:53:55;;;;;;;33.20;14.23;;;;;;;9.26;76.66;99937.06;4860136;29;20053;-86
2022/10/18 04:56:21;;;;;;;35.25;14.70;;;;;;;9.20;76.61;99925.38;4860123;29;20033;-86
2022/10/18 04:58:48;;;;;;;31.03;14.80;;;;;;;9.22;76.66;99919.66;4858889;29;20421;-86
2022/10/18 05:01:16;;;;;;;35.25;14.98;;;;;;;9.39;76.33;99931.72;4860429;29;20128;-86
2022/10/18 05:03:42;;;;;;;36.28;15.43;;;;;;;9.29;76.27;99909.19;4860126;29;20045;-86
2022/10/18 05:06:08;;;;;;;40.33;15.50;;;;;;;9.41;76.21;99918.59;4858829;29;20060;-90
2022/10/18 05:08:35;;;;;;;32.50;15.40;;;;;;;9.39;76.07;99900.91;4858842;29;20073;-86
2022/10/18 05:11:02;;;;;;;32.70;14.38;;;;;;;9.45;75.82;99920.75;4859931;29;20507;-87
2022/10/18 05:13:28;;;;;;;33.53;14.20;;;;;;;9.45;75.99;99916.09;4859905;29;20511;-87
2022/10/18 05:15:55;;;;;;;30.70;15.05;;;;;;;9.49;75.90;99917.16;4860067;29;20060;-88
2022/10/18 05:18:21;;;;;;;34.13;14.93;;;;;;;9.37;75.62;99876.66;4859617;29;20041;-87
2022/10/18 05:20:47;;;;;;;29.13;13.95;;;;;;;9.61;75.43;99911.28;4858544;29;20060;-87
2022/10/18 05:23:13;;;;;;;33.42;14.52;;;;;;;9.51;75.38;99906.75;4858604;29;20515;-87
2022/10/18 05:25:42;;;;;;;29.45;14.25;;;;;;;9.58;75.55;99909.94;4859529;29;20128;-87
2022/10/18 05:28:09;;;;;;;42.90;16.27;;;;;;;9.48;75.28;99907.34;4859729;29;20048;-87
2022/10/18 05:30:39;;;;;;;34.25;15.00;;;;;;;9.67;75.20;99929.25;4859432;29;20186;-87
2022/10/18 05:33:06;;;;;;;34.45;13.95;;;;;;;9.53;75.21;99912.72;4859513;29;20049;-87
2022/10/18 05:35:33;;;;;;;;;;;;;;;9.51;75.28;99911.41;4862549;29;20132;-87
2022/10/18 05:38:03;;;;;;;34.58;14.60;;;;;;;9.74;75.29;99931.63;4896601;29;20078;-86
2022/10/18 05:40:29;;;;;;;27.63;14.35;;;;;;;9.77;75.02;99918.19;4880050;29;20044;-86
2022/10/18 05:42:55;;;;;;;28.67;15.32;;;;;;;9.73;74.85;99929.97;4896609;29;20047;-87
2022/10/18 05:45:21;;;;;;;37.53;15.18;;;;;;;9.57;74.96;99904.75;4896895;29;20411;-86
2022/10/18 05:47:47;;;;;;;40.42;14.73;;;;;;;9.50;75.32;99902.38;4896827;29;20055;-86
2022/10/18 05:50:14;;;;;;;34.97;14.70;;;;;;;9.56;75.34;99919.53;4896649;29;20089;-86
2022/10/18 05:52:40;;;;;;;30.55;14.77;;;;;;;9.58;75.59;99922.78;4880189;29;20416;-88
2022/10/18 05:55:06;;;;;;;37.60;15.95;;;;;;;9.54;75.82;99930.75;4879892;29;20036;-87
2022/10/18 05:57:32;;;;;;;29.73;14.27;;;;;;;9.49;76.08;99908.16;4879772;29;20111;-88
2022/10/18 05:59:59;;;;;;;29.10;13.73;;;;;;;9.59;75.96;99917.03;4896905;29;20047;-86
2022/10/18 06:02:25;;;;;;;33.95;15.52;;;;;;;9.57;75.88;99907.50;4879580;29;20056;-89
2022/10/18 06:04:51;;;;;;;35.65;15.27;;;;;;;9.62;75.75;99885.59;4896784;29;20067;-87
2022/10/18 06:07:17;;;;;;;36.85;15.00;;;;;;;9.97;75.26;99897.97;4897096;29;20076;-88
2022/10/18 06:09:43;;;;;;;37.22;15.65;;;;;;;9.70;75.01;99860.41;4880297;29;20052;-89
2022/10/18 06:12:09;;;;;;;37.47;15.30;;;;;;;9.76;74.87;99861.13;4880103;29;20054;-89
2022/10/18 06:14:36;;;;;;;34.50;15.65;;;;;;;9.89;75.01;99883.06;4901278;29;20064;-90
2022/10/18 06:17:03;;;;;;;34.55;15.02;;;;;;;9.88;74.94;99875.97;4883414;29;20135;-92
2022/10/18 06:19:29;;;;;;;44.90;19.55;;;;;;;9.63;75.20;99830.75;4880656;29;20052;-90
2022/10/18 06:21:55;;;;;;;48.30;22.58;;;;;;;9.82;75.00;99849.84;4865003;29;20044;-93
2022/10/18 06:24:22;;;;;;;44.85;21.13;;;;;;;9.90;75.19;99867.50;4899803;29;20051;-89
2022/10/18 06:26:48;;;;;;;67.57;34.93;;;;;;;9.93;75.25;99864.16;4868534;29;20040;-89
2022/10/18 06:29:15;;;;;;;50.80;24.67;;;;;;;9.91;75.05;99841.81;4886774;29;20078;-88
2022/10/18 06:31:41;;;;;;;40.47;18.70;;;;;;;9.84;75.33;99850.38;4918901;29;20036;-91
2022/10/18 06:34:08;;;;;;;47.60;23.27;;;;;;;10.04;74.96;99834.78;4902175;29;20052;-88
2022/10/18 06:36:34;;;;;;;41.88;19.33;;;;;;;9.89;75.28;99827.63;4900918;29;20100;-88
2022/10/18 06:39:01;;;;;;;32.45;16.00;;;;;;;9.96;75.52;99838.19;4903692;29;20036;-89
2022/10/18 06:41:27;;;;;;;46.63;18.80;;;;;;;9.96;75.67;99830.78;4881704;29;20049;-88
2022/10/18 06:43:57;;;;;;;55.20;24.53;;;;;;;10.02;75.89;99826.06;4890233;29;20064;-89
2022/10/18 06:46:24;;;;;;;42.00;20.33;;;;;;;9.91;75.80;99795.38;4907176;29;20049;-92
2022/10/18 06:48:54;;;;;;;46.78;17.80;;;;;;;9.92;76.16;99807.91;4867704;29;20041;-88
2022/10/18 06:51:20;;;;;;;36.58;16.33;;;;;;;9.79;76.54;99776.72;4900177;29;20463;-87
2022/10/18 06:53:46;;;;;;;38.28;17.70;;;;;;;9.78;76.90;99739.59;4900015;29;20048;-90
2022/10/18 06:56:13;;;;;;;35.40;16.55;;;;;;;9.91;77.04;99721.66;4883289;29;20510;-89
2022/10/18 06:58:39;;;;;;;32.55;15.50;;;;;;;9.92;76.63;99717.00;4883682;29;20053;-91
2022/10/18 07:01:08;;;;;;;39.92;15.85;;;;;;;9.88;77.02;99708.59;4883355;29;20525;-89
2022/10/18 07:03:35;;;;;;;38.28;15.60;;;;;;;9.86;76.79;99686.22;4900420;29;20047;-90
2022/10/18 07:06:03;;;;;;;40.40;16.42;;;;;;;10.10;76.91;99725.16;4899669;29;20044;-90
2022/10/18 07:08:31;;;;;;;40.78;16.63;;;;;;;10.00;77.06;99736.25;4883398;29;20544;-88
2022/10/18 07:10:58;;;;;;;53.13;22.73;;;;;;;10.00;76.88;99724.50;4899512;29;20595;-85
2022/10/18 07:13:29;;;;;;;61.80;29.30;;;;;;;10.14;77.33;99697.22;4882585;29;20104;-88
2022/10/18 07:16:08;;;;;;;43.85;18.52;;;;;;;10.32;76.88;99696.38;4882730;29;20140;-92
2022/10/18 07:18:35;;;;;;;38.08;18.08;;;;;;;10.33;76.96;99681.59;4882811;29;20076;-86
2022/10/18 07:21:08;;;;;;;41.40;18.38;;;;;;;10.17;76.96;99681.06;4899783;29;20530;-93
2022/10/18 07:23:36;;;;;;;43.60;16.30;;;;;;;10.00;77.37;99624.28;4883079;29;20557;-91
2022/10/18 07:26:16;;;;;;;41.00;17.77;;;;;;;10.17;77.08;99615.47;4899474;29;20174;-91
2022/10/18 07:28:45;;;;;;;45.53;18.63;;;;;;;10.36;77.09;99637.25;4899115;29;20181;-86
2022/10/18 07:31:11;;;;;;;44.53;19.17;;;;;;;10.40;77.09;99624.63;4899030;29;20044;-87
2022/10/18 07:33:38;;;;;;;48.08;20.38;;;;;;;10.39;77.26;99598.38;4882129;29;20108;-87
2022/10/18 07:36:06;;;;;;;42.83;18.92;;;;;;;10.42;76.63;99581.38;4888943;29;20073;-87
2022/10/18 07:38:33;;;;;;;44.10;19.67;;;;;;;10.64;76.20;99588.84;4875867;29;20190;-87
2022/10/18 07:41:00;;;;;;;;;;;;;;;10.71;76.42;99574.78;4861925;29;20054;-87
2022/10/18 07:43:27;;;;;;;42.17;18.70;;;;;;;10.79;75.95;99569.41;4861447;29;20014;-91
2022/10/18 07:45:59;;;;;;;49.42;19.65;;;;;;;10.70;75.99;99529.41;4861481;29;20049;-87
2022/10/18 07:48:26;;;;;;;52.15;21.45;;;;;;;10.75;76.09;99513.69;4860285;29;20117;-91
2022/10/18 07:50:52;;;;;;;50.38;23.17;;;;;;;10.73;75.76;99504.19;4875647;29;20099;-87
2022/10/18 07:53:20;;;;;;;59.40;25.73;;;;;;;10.79;75.69;99498.28;4861324;29;20049;-87
2022/10/18 07:55:46;;;;;;;48.47;24.65;;;;;;;10.67;75.50;99469.88;4861320;29;20644;-86
2022/10/18 07:58:13;;;;;;;;;;;;;;;10.77;75.82;99500.53;4858925;29;20508;-81
2022/10/18 08:00:41;;;;;;;51.03;21.80;;;;;;;10.75;75.88;99485.53;4860393;29;19928;-79
2022/10/18 08:03:08;;;;;;;43.63;21.88;;;;;;;10.80;75.79;99475.28;4860872;29;20060;-80
2022/10/18 08:05:34;;;;;;;40.83;20.42;;;;;;;10.84;75.70;99464.53;4860993;29;20049;-79
2022/10/18 08:08:00;;;;;;;42.57;20.00;;;;;;;10.89;75.58;99453.47;4859814;29;20049;-79
2022/10/18 08:10:26;;;;;;;41.50;18.10;;;;;;;10.83;75.49;99452.00;4859433;29;20061;-81
2022/10/18 08:12:53;;;;;;;35.80;17.08;;;;;;;10.76;75.65;99443.38;4856659;29;20090;-79
2022/10/18 08:15:22;;;;;;;44.35;16.75;;;;;;;10.87;75.79;99419.34;4859820;29;20483;-79
2022/10/18 08:17:48;;;;;;;39.35;18.08;;;;;;;10.88;75.23;99410.81;4860500;29;20057;-79
2022/10/18 08:20:15;;;;;;;41.38;18.75;;;;;;;10.89;75.51;99390.56;4859506;29;20049;-78
2022/10/18 08:22:41;;;;;;;47.33;20.08;;;;;;;10.86;75.53;99383.00;4857929;29;20500;-83
2022/10/18 08:25:07;;;;;;;42.08;19.63;;;;;;;10.81;75.62;99347.56;4852916;29;20045;-82
2022/10/18 08:27:34;;;;;;;38.40;17.42;;;;;;;10.88;75.34;99344.38;4857384;29;20046;-82
2022/10/18 08:30:01;;;;;;;36.08;16.15;;;;;;;10.90;75.12;99340.22;4858475;29;20420;-79
2022/10/18 08:32:29;;;;;;;39.95;15.63;;;;;;;10.87;75.14;99324.44;4860384;29;20136;-79
2022/10/18 08:34:55;;;;;;;35.45;14.73;;;;;;;10.86;75.30;99330.22;4860577;29;20090;-79
2022/10/18 08:37:22;;;;;;;40.15;15.30;;;;;;;10.86;75.30;99305.59;4883730;29;20056;-77
2022/10/18 08:39:48;;;;;;;41.45;15.57;;;;;;;10.86;75.68;99283.72;4894926;29;20086;-78
2022/10/18 08:42:34;;;;;;;44.42;23.75;;;;;;;10.78;75.60;99245.09;4891071;29;20139;-83
2022/10/18 08:45:00;;;;;;;44.05;19.67;;;;;;;10.67;75.70;99205.50;4891736;29;20044;-80
2022/10/18 08:47:34;;;;;;;43.17;18.73;;;;;;;10.76;76.24;99198.13;4896334;29;20071;-83
2022/10/18 08:50:17;;;;;;;35.97;17.08;;;;;;;10.70;76.15;99183.00;4897250;29;20048;-86
2022/10/18 08:53:02;;;;;;;32.20;13.55;;;;;;;10.64;76.32;99151.47;4880268;29;20060;-85
2022/10/18 08:55:42;;;;;;;30.30;14.63;;;;;;;10.61;76.42;99141.16;4894510;29;20173;-84
2022/10/18 08:58:30;;;;;;;32.83;13.93;;;;;;;10.44;76.74;99128.25;4894296;29;20040;-82
2022/10/18 09:01:14;;;;;;;33.15;14.73;;;;;;;10.37;77.42;99116.97;4889142;29;20048;-84
2022/10/18 09:03:59;;;;;;;28.83;14.07;;;;;;;10.37;77.76;99102.50;4897209;29;20068;-84
2022/10/18 09:06:32;;;;;;;39.03;17.67;;;;;;;10.44;77.82;99102.84;4895665;29;20119;-87
2022/10/18 09:09:35;;;;;;;53.38;25.65;;;;;;;10.46;77.72;99076.81;4892002;29;20611;-84
2022/10/18 09:12:10;;;;;;;47.45;21.63;;;;;;;10.46;77.66;99101.41;4877121;29;20526;-80
2022/10/18 09:14:46;;;;;;;34.15;18.20;;;;;;;10.41;78.01;99084.34;4894713;29;20105;-80
2022/10/18 09:17:37;;;;;;;34.58;15.98;;;;;;;10.42;78.03;99125.00;4893754;29;20048;-82
2022/10/18 09:20:27;;;;;;;30.40;14.38;;;;;;;10.33;78.81;99119.53;4880129;29;20048;-83
2022/10/18 09:22:55;;;;;;;38.55;19.23;;;;;;;10.38;79.20;99110.38;4877412;29;20059;-83
2022/10/18 09:25:34;;;;;;;33.38;17.67;;;;;;;10.30;79.58;99108.44;4893320;29;20127;-84
2022/10/18 09:28:13;;;;;;;33.83;16.40;;;;;;;10.30;79.99;99103.78;4893118;29;20052;-86
2022/10/18 09:31:12;;;;;;;24.73;12.75;;;;;;;10.19;80.62;99091.47;4888490;29;20139;-81
2022/10/18 09:34:04;;;;;;;26.70;11.45;;;;;;;10.22;81.08;99085.38;4895807;29;20045;-81
2022/10/18 09:36:34;;;;;;;23.40;11.95;;;;;;;10.22;81.74;99071.72;4876343;29;20057;-83
2022/10/18 09:39:13;;;;;;;25.98;12.10;;;;;;;10.19;82.11;99052.44;4874206;29;20109;-84
2022/10/18 09:41:48;;;;;;;19.38;11.02;;;;;;;10.32;81.97;99055.06;4874987;29;20045;-81
2022/10/18 09:44:21;;;;;;;20.73;11.52;;;;;;;10.39;82.01;99051.88;4876541;29;20136;-84
2022/10/18 09:46:56;;;;;;;21.73;11.13;;;;;;;10.41;81.97;99043.38;4877307;29;20112;-82
2022/10/18 09:49:27;;;;;;;21.63;11.63;;;;;;;10.38;82.28;99044.81;4878238;29;20044;-83
2022/10/18 09:51:55;;;;;;;21.90;11.57;;;;;;;10.46;82.38;99037.72;4877940;29;20422;-82
2022/10/18 09:54:29;;;;;;;22.25;12.45;;;;;;;10.49;82.22;99037.91;4877855;29;20427;-83
2022/10/18 09:57:17;;;;;;;23.55;11.95;;;;;;;10.55;82.31;99044.03;4877481;29;20053;-83
2022/10/18 09:59:51;;;;;;;23.58;13.35;;;;;;;10.53;82.09;99011.56;4880512;29;20457;-88
2022/10/18 10:02:21;;;;;;;25.40;12.63;;;;;;;10.64;82.06;99024.91;4882182;29;20578;-90
2022/10/18 10:04:48;;;;;;;24.95;11.63;;;;;;;10.43;82.27;98983.72;4881869;29;20056;-86
2022/10/18 10:07:16;;;;;;;;;;;;;;;10.75;82.30;99018.00;4880747;29;20094;-86
2022/10/18 10:09:56;;;;;;;16.35;9.90;;;;;;;10.74;82.63;99006.25;4880976;29;20019;-88
2022/10/18 10:12:34;;;;;;;17.70;10.02;;;;;;;10.75;82.61;98987.91;4880567;29;20120;-88
2022/10/18 10:15:22;;;;;;;29.67;12.68;;;;;;;10.76;82.81;98993.09;4880486;29;20049;-86
2022/10/18 10:18:01;;;;;;;23.02;10.65;;;;;;;10.77;83.30;98974.75;4879878;29;20515;-88
2022/10/18 10:20:32;;;;;;;22.60;10.45;;;;;;;10.84;83.67;98975.06;4864534;29;20049;-86
2022/10/18 10:23:06;;;;;;;22.00;10.88;;;;;;;10.86;83.57;98955.59;4880283;29;20419;-85
2022/10/18 10:25:36;;;;;;;19.17;11.15;;;;;;;10.91;84.13;98967.16;4880362;29;20080;-89
2022/10/18 10:28:13;;;;;;;18.92;10.88;;;;;;;11.01;84.23;98953.16;4867422;29;20091;-87
2022/10/18 10:30:40;;;;;;;18.40;10.13;;;;;;;10.89;84.20;98930.31;4861784;29;20552;-88
2022/10/18 10:33:31;;;;;;;16.80;10.60;;;;;;;10.89;84.66;98920.19;4861635;29;20529;-87
2022/10/18 10:35:59;;;;;;;17.25;10.80;;;;;;;10.96;85.04;98926.00;4867773;29;20076;-89
2022/10/18 10:38:29;;;;;;;19.10;11.55;;;;;;;11.28;85.35;98968.38;4883425;29;20538;-89
2022/10/18 10:40:56;;;;;;;22.20;12.38;;;;;;;11.15;85.27;98938.47;4868426;29;20629;-92
2022/10/18 10:43:27;;;;;;;;;;;;;;;11.38;85.39;98960.94;4884146;29;20499;-91
2022/10/18 10:46:19;;;;;;;26.00;12.93;;;;;;;11.43;85.25;98955.31;4883625;29;19923;-92
2022/10/18 10:48:53;;;;;;;28.30;13.05;;;;;;;11.44;85.69;98957.72;4876645;29;20047;-91
2022/10/18 10:51:37;;;;;;;24.52;14.13;;;;;;;11.48;85.83;98938.69;4878728;29;20049;-88
2022/10/18 10:54:07;;;;;;;27.90;15.15;;;;;;;11.57;85.92;98930.47;4864149;29;20131;-92
2022/10/18 10:56:37;;;;;;;24.65;15.38;;;;;;;11.59;86.05;98937.22;4848297;29;20076;-88
2022/10/18 10:59:18;;;;;;;31.50;16.25;;;;;;;11.51;85.62;98900.53;4862074;29;20037;-90
2022/10/18 11:01:48;;;;;;;29.67;16.38;;;;;;;11.73;86.19;98918.63;4848185;29;20072;-91
2022/10/18 11:04:29;;;;;;;38.95;18.75;;;;;;;11.94;86.44;98928.84;4863804;29;20059;-92
2022/10/18 11:07:31;;;;;;;31.98;17.00;;;;;;;12.05;86.47;98929.25;4847198;29;20045;-90
2022/10/18 11:10:11;;;;;;;30.65;16.95;;;;;;;12.17;86.36;98934.81;4891044;29;20139;-90
2022/10/18 11:12:46;;;;;;;35.65;18.10;;;;;;;12.10;86.49;98898.94;4879078;29;20045;-90
2022/10/18 11:15:27;;;;;;;33.17;18.13;;;;;;;12.24;86.69;98899.47;4847477;29;20052;-91
2022/10/18 11:18:18;;;;;;;31.73;17.77;;;;;;;12.38;86.76;98921.94;4863146;29;20045;-88
2022/10/18 11:20:56;;;;;;;26.63;16.88;;;;;;;12.38;87.13;98901.94;4862997;29;20064;-88
2022/10/18 11:23:30;;;;;;;37.35;19.13;;;;;;;12.27;87.19;98885.09;4847841;29;20121;-92
2022/10/18 11:26:07;;;;;;;34.08;18.90;;;;;;;12.51;87.41;98892.63;4862215;29;20057;-90
2022/10/18 11:28:52;;;;;;;31.33;18.45;;;;;;;12.55;87.20;98917.44;4870798;29;20601;-89
2022/10/18 11:31:34;;;;;;;32.42;17.58;;;;;;;12.48;87.30;98900.72;4882696;29;20051;-88
2022/10/18 11:34:31;;;;;;;34.03;17.77;;;;;;;12.65;87.50;98915.09;4867038;29;20423;-89
2022/10/18 11:37:21;;;;;;;28.48;16.55;;;;;;;12.68;87.45;98917.19;4866107;29;20080;-89
2022/10/18 11:40:15;;;;;;;33.40;18.30;;;;;;;12.62;87.39;98891.09;4882229;29;20055;-86
2022/10/18 11:43:07;;;;;;;32.53;18.48;;;;;;;12.72;87.42;98897.31;4882129;29;20104;-91